sensor_id;sensor_type;location;lat;lon;timestamp;P1;durP1;ratioP1;P2;durP2;ratioP2
828;SDS011;396;52.558;13.188;2023-07-22T00:01:52;6.80;;;2.20;;
828;SDS011;396;52.558;13.188;2023-07-22T00:04:18;7.90;;;2.37;;
828;SDS011;396;52.558;13.188;2023-07-22T00:06:45;7.60;;;3.00;;
828;SDS011;396;52.558;13.188;2023-07-22T00:09:12;7.63;;;2.50;;
828;SDS011;396;52.558;13.188;2023-07-22T00:11:38;7.37;;;2.03;;
828;SDS011;396;52.558;13.188;2023-07-22T00:14:05;7.20;;;2.30;;
828;SDS011;396;52.558;13.188;2023-07-22T00:16:33;8.07;;;2.97;;
828;SDS011;396;52.558;13.188;2023-07-22T00:19:00;9.57;;;3.30;;
828;SDS011;396;52.558;13.188;2023-07-22T00:21:27;8.13;;;2.43;;
828;SDS011;396;52.558;13.188;2023-07-22T00:23:54;7.00;;;2.73;;
828;SDS011;396;52.558;13.188;2023-07-22T00:26:20;7.90;;;2.67;;
828;SDS011;396;52.558;13.188;2023-07-22T00:28:47;7.40;;;2.80;;
828;SDS011;396;52.558;13.188;2023-07-22T00:31:14;7.60;;;2.40;;
828;SDS011;396;52.558;13.188;2023-07-22T00:33:42;10.93;;;3.30;;
828;SDS011;396;52.558;13.188;2023-07-22T00:36:08;7.13;;;2.30;;
828;SDS011;396;52.558;13.188;2023-07-22T00:38:35;7.47;;;2.97;;
828;SDS011;396;52.558;13.188;2023-07-22T00:41:01;7.07;;;2.77;;
828;SDS011;396;52.558;13.188;2023-07-22T00:43:29;8.33;;;2.80;;
828;SDS011;396;52.558;13.188;2023-07-22T00:45:56;7.90;;;2.97;;
828;SDS011;396;52.558;13.188;2023-07-22T00:48:23;8.37;;;3.10;;
828;SDS011;396;52.558;13.188;2023-07-22T00:50:52;8.70;;;3.30;;
828;SDS011;396;52.558;13.188;2023-07-22T00:53:18;7.70;;;3.43;;
828;SDS011;396;52.558;13.188;2023-07-22T00:55:45;8.27;;;3.17;;
828;SDS011;396;52.558;13.188;2023-07-22T00:58:12;7.63;;;2.90;;
828;SDS011;396;52.558;13.188;2023-07-22T01:00:39;8.20;;;3.00;;
828;SDS011;396;52.558;13.188;2023-07-22T01:03:05;7.97;;;3.10;;
828;SDS011;396;52.558;13.188;2023-07-22T01:05:33;8.50;;;3.10;;
828;SDS011;396;52.558;13.188;2023-07-22T01:08:03;8.00;;;2.60;;
828;SDS011;396;52.558;13.188;2023-07-22T01:10:30;8.20;;;3.03;;
828;SDS011;396;52.558;13.188;2023-07-22T01:12:57;12.37;;;3.10;;
828;SDS011;396;52.558;13.188;2023-07-22T01:15:24;7.50;;;2.90;;
828;SDS011;396;52.558;13.188;2023-07-22T01:17:51;8.97;;;2.97;;
828;SDS011;396;52.558;13.188;2023-07-22T01:20:20;7.73;;;2.87;;
828;SDS011;396;52.558;13.188;2023-07-22T01:22:51;6.67;;;2.30;;
828;SDS011;396;52.558;13.188;2023-07-22T01:25:18;8.10;;;3.23;;
828;SDS011;396;52.558;13.188;2023-07-22T01:27:46;6.90;;;2.87;;
828;SDS011;396;52.558;13.188;2023-07-22T01:30:13;10.93;;;3.90;;
828;SDS011;396;52.558;13.188;2023-07-22T01:32:39;7.43;;;3.13;;
828;SDS011;396;52.558;13.188;2023-07-22T01:35:07;8.23;;;3.10;;
828;SDS011;396;52.558;13.188;2023-07-22T01:37:34;8.60;;;3.07;;
828;SDS011;396;52.558;13.188;2023-07-22T01:40:03;9.50;;;3.80;;
828;SDS011;396;52.558;13.188;2023-07-22T01:42:36;7.83;;;2.93;;
828;SDS011;396;52.558;13.188;2023-07-22T01:45:03;10.87;;;3.60;;
828;SDS011;396;52.558;13.188;2023-07-22T01:47:32;8.17;;;3.30;;
828;SDS011;396;52.558;13.188;2023-07-22T01:49:59;8.07;;;3.00;;
828;SDS011;396;52.558;13.188;2023-07-22T01:52:26;8.93;;;3.50;;
828;SDS011;396;52.558;13.188;2023-07-22T01:54:52;8.63;;;3.10;;
828;SDS011;396;52.558;13.188;2023-07-22T01:57:20;8.53;;;3.23;;
828;SDS011;396;52.558;13.188;2023-07-22T01:59:47;9.30;;;3.47;;
828;SDS011;396;52.558;13.188;2023-07-22T02:02:14;7.67;;;2.90;;
828;SDS011;396;52.558;13.188;2023-07-22T02:04:41;7.57;;;2.63;;
828;SDS011;396;52.558;13.188;2023-07-22T02:07:07;9.60;;;3.07;;
828;SDS011;396;52.558;13.188;2023-07-22T02:09:35;8.47;;;3.30;;
828;SDS011;396;52.558;13.188;2023-07-22T02:12:02;8.43;;;3.37;;
828;SDS011;396;52.558;13.188;2023-07-22T02:14:30;7.00;;;2.80;;
828;SDS011;396;52.558;13.188;2023-07-22T02:16:56;6.83;;;2.87;;
828;SDS011;396;52.558;13.188;2023-07-22T02:19:23;7.80;;;2.87;;
828;SDS011;396;52.558;13.188;2023-07-22T02:21:50;6.73;;;2.33;;
828;SDS011;396;52.558;13.188;2023-07-22T02:24:16;8.37;;;2.90;;
828;SDS011;396;52.558;13.188;2023-07-22T02:26:43;7.07;;;2.97;;
828;SDS011;396;52.558;13.188;2023-07-22T02:29:10;12.17;;;3.37;;
828;SDS011;396;52.558;13.188;2023-07-22T02:31:39;8.20;;;3.13;;
828;SDS011;396;52.558;13.188;2023-07-22T02:34:06;6.80;;;2.70;;
828;SDS011;396;52.558;13.188;2023-07-22T02:36:32;7.33;;;2.73;;
828;SDS011;396;52.558;13.188;2023-07-22T02:38:59;7.73;;;3.30;;
828;SDS011;396;52.558;13.188;2023-07-22T02:41:26;8.77;;;3.10;;
828;SDS011;396;52.558;13.188;2023-07-22T02:43:52;7.53;;;2.60;;
828;SDS011;396;52.558;13.188;2023-07-22T02:46:19;6.80;;;2.20;;
828;SDS011;396;52.558;13.188;2023-07-22T02:48:48;7.03;;;2.83;;
828;SDS011;396;52.558;13.188;2023-07-22T02:51:14;7.17;;;2.73;;
828;SDS011;396;52.558;13.188;2023-07-22T02:53:41;9.20;;;3.30;;
828;SDS011;396;52.558;13.188;2023-07-22T02:56:09;7.33;;;2.50;;
828;SDS011;396;52.558;13.188;2023-07-22T02:58:36;7.13;;;2.80;;
828;SDS011;396;52.558;13.188;2023-07-22T03:01:03;7.30;;;2.53;;
828;SDS011;396;52.558;13.188;2023-07-22T03:03:30;7.67;;;2.77;;
828;SDS011;396;52.558;13.188;2023-07-22T03:05:59;7.60;;;3.13;;
828;SDS011;396;52.558;13.188;2023-07-22T03:08:26;5.87;;;1.90;;
828;SDS011;396;52.558;13.188;2023-07-22T03:10:52;7.47;;;2.80;;
828;SDS011;396;52.558;13.188;2023-07-22T03:13:19;9.10;;;2.80;;
828;SDS011;396;52.558;13.188;2023-07-22T03:15:46;7.57;;;2.60;;
828;SDS011;396;52.558;13.188;2023-07-22T03:18:12;7.40;;;2.87;;
828;SDS011;396;52.558;13.188;2023-07-22T03:20:39;7.90;;;2.70;;
828;SDS011;396;52.558;13.188;2023-07-22T03:23:07;8.90;;;2.60;;
828;SDS011;396;52.558;13.188;2023-07-22T03:25:34;6.40;;;2.17;;
828;SDS011;396;52.558;13.188;2023-07-22T03:28:02;9.47;;;3.63;;
828;SDS011;396;52.558;13.188;2023-07-22T03:30:30;6.67;;;2.73;;
828;SDS011;396;52.558;13.188;2023-07-22T03:32:57;7.20;;;2.40;;
828;SDS011;396;52.558;13.188;2023-07-22T03:35:24;6.93;;;2.87;;
828;SDS011;396;52.558;13.188;2023-07-22T03:37:50;7.13;;;2.60;;
828;SDS011;396;52.558;13.188;2023-07-22T03:40:18;7.77;;;2.90;;
828;SDS011;396;52.558;13.188;2023-07-22T03:42:45;6.63;;;2.50;;
828;SDS011;396;52.558;13.188;2023-07-22T03:45:11;7.60;;;3.00;;
828;SDS011;396;52.558;13.188;2023-07-22T03:47:38;8.30;;;2.57;;
828;SDS011;396;52.558;13.188;2023-07-22T03:50:06;6.70;;;2.90;;
828;SDS011;396;52.558;13.188;2023-07-22T03:52:33;7.90;;;2.50;;
828;SDS011;396;52.558;13.188;2023-07-22T03:55:00;6.90;;;2.23;;
828;SDS011;396;52.558;13.188;2023-07-22T03:57:28;7.60;;;2.57;;
828;SDS011;396;52.558;13.188;2023-07-22T03:59:55;7.47;;;2.30;;
828;SDS011;396;52.558;13.188;2023-07-22T04:02:22;7.57;;;2.57;;
828;SDS011;396;52.558;13.188;2023-07-22T04:04:49;7.90;;;2.10;;
828;SDS011;396;52.558;13.188;2023-07-22T04:07:16;6.30;;;2.30;;
828;SDS011;396;52.558;13.188;2023-07-22T04:09:43;7.03;;;2.60;;
828;SDS011;396;52.558;13.188;2023-07-22T04:12:10;6.33;;;2.10;;
828;SDS011;396;52.558;13.188;2023-07-22T04:14:38;9.30;;;3.60;;
828;SDS011;396;52.558;13.188;2023-07-22T04:17:05;6.87;;;2.30;;
828;SDS011;396;52.558;13.188;2023-07-22T04:19:32;7.73;;;2.80;;
828;SDS011;396;52.558;13.188;2023-07-22T04:21:59;9.20;;;2.90;;
828;SDS011;396;52.558;13.188;2023-07-22T04:24:29;6.80;;;2.37;;
828;SDS011;396;52.558;13.188;2023-07-22T04:26:55;5.90;;;1.73;;
828;SDS011;396;52.558;13.188;2023-07-22T04:29:22;7.50;;;2.77;;
828;SDS011;396;52.558;13.188;2023-07-22T04:31:50;8.83;;;2.90;;
828;SDS011;396;52.558;13.188;2023-07-22T04:34:17;7.43;;;2.43;;
828;SDS011;396;52.558;13.188;2023-07-22T04:36:44;6.80;;;2.40;;
828;SDS011;396;52.558;13.188;2023-07-22T04:39:10;6.50;;;2.47;;
828;SDS011;396;52.558;13.188;2023-07-22T04:41:37;14.40;;;3.07;;
828;SDS011;396;52.558;13.188;2023-07-22T04:44:04;6.60;;;2.67;;
828;SDS011;396;52.558;13.188;2023-07-22T04:46:31;6.83;;;2.30;;
828;SDS011;396;52.558;13.188;2023-07-22T04:48:59;7.17;;;2.93;;
828;SDS011;396;52.558;13.188;2023-07-22T04:51:26;6.10;;;2.20;;
828;SDS011;396;52.558;13.188;2023-07-22T04:53:53;7.43;;;2.80;;
828;SDS011;396;52.558;13.188;2023-07-22T04:56:19;7.67;;;2.83;;
828;SDS011;396;52.558;13.188;2023-07-22T04:58:46;6.03;;;1.90;;
828;SDS011;396;52.558;13.188;2023-07-22T05:01:14;7.40;;;2.90;;
828;SDS011;396;52.558;13.188;2023-07-22T05:03:41;7.80;;;2.47;;
828;SDS011;396;52.558;13.188;2023-07-22T05:06:09;8.10;;;2.73;;
828;SDS011;396;52.558;13.188;2023-07-22T05:08:36;6.67;;;2.50;;
828;SDS011;396;52.558;13.188;2023-07-22T05:11:03;6.93;;;2.30;;
828;SDS011;396;52.558;13.188;2023-07-22T05:13:30;10.20;;;2.43;;
828;SDS011;396;52.558;13.188;2023-07-22T05:15:57;7.00;;;2.87;;
828;SDS011;396;52.558;13.188;2023-07-22T05:18:23;7.93;;;2.90;;
828;SDS011;396;52.558;13.188;2023-07-22T05:20:50;8.17;;;3.37;;
828;SDS011;396;52.558;13.188;2023-07-22T05:23:18;7.33;;;2.90;;
828;SDS011;396;52.558;13.188;2023-07-22T05:25:50;8.83;;;3.70;;
828;SDS011;396;52.558;13.188;2023-07-22T05:28:17;7.93;;;2.27;;
828;SDS011;396;52.558;13.188;2023-07-22T05:30:43;8.53;;;2.93;;
828;SDS011;396;52.558;13.188;2023-07-22T05:33:10;9.77;;;3.47;;
828;SDS011;396;52.558;13.188;2023-07-22T05:35:37;9.70;;;4.00;;
828;SDS011;396;52.558;13.188;2023-07-22T05:38:03;9.73;;;3.73;;
828;SDS011;396;52.558;13.188;2023-07-22T05:40:32;8.13;;;2.60;;
828;SDS011;396;52.558;13.188;2023-07-22T05:42:59;7.60;;;2.93;;
828;SDS011;396;52.558;13.188;2023-07-22T05:45:26;11.30;;;3.80;;
828;SDS011;396;52.558;13.188;2023-07-22T05:47:52;11.00;;;4.03;;
828;SDS011;396;52.558;13.188;2023-07-22T05:50:19;12.40;;;4.10;;
828;SDS011;396;52.558;13.188;2023-07-22T05:52:46;8.67;;;3.30;;
828;SDS011;396;52.558;13.188;2023-07-22T05:55:13;8.90;;;3.67;;
828;SDS011;396;52.558;13.188;2023-07-22T05:57:41;7.70;;;3.10;;
828;SDS011;396;52.558;13.188;2023-07-22T06:00:13;9.00;;;2.77;;
828;SDS011;396;52.558;13.188;2023-07-22T06:02:40;11.03;;;3.70;;
828;SDS011;396;52.558;13.188;2023-07-22T06:05:07;8.80;;;2.83;;
828;SDS011;396;52.558;13.188;2023-07-22T06:07:34;7.40;;;3.20;;
828;SDS011;396;52.558;13.188;2023-07-22T06:10:01;9.13;;;3.63;;
828;SDS011;396;52.558;13.188;2023-07-22T06:12:28;9.43;;;3.90;;
828;SDS011;396;52.558;13.188;2023-07-22T06:14:56;11.83;;;3.37;;
828;SDS011;396;52.558;13.188;2023-07-22T06:17:23;8.80;;;3.20;;
828;SDS011;396;52.558;13.188;2023-07-22T06:19:49;10.40;;;2.83;;
828;SDS011;396;52.558;13.188;2023-07-22T06:22:16;9.83;;;2.87;;
828;SDS011;396;52.558;13.188;2023-07-22T06:24:43;10.53;;;3.30;;
828;SDS011;396;52.558;13.188;2023-07-22T06:27:09;10.30;;;3.23;;
828;SDS011;396;52.558;13.188;2023-07-22T06:29:36;13.93;;;4.23;;
828;SDS011;396;52.558;13.188;2023-07-22T06:32:05;8.13;;;3.00;;
828;SDS011;396;52.558;13.188;2023-07-22T06:34:32;9.00;;;2.90;;
828;SDS011;396;52.558;13.188;2023-07-22T06:36:59;8.33;;;2.67;;
828;SDS011;396;52.558;13.188;2023-07-22T06:39:25;6.27;;;2.23;;
828;SDS011;396;52.558;13.188;2023-07-22T06:41:52;7.10;;;2.40;;
828;SDS011;396;52.558;13.188;2023-07-22T06:44:19;7.60;;;2.60;;
828;SDS011;396;52.558;13.188;2023-07-22T06:46:46;6.60;;;1.93;;
828;SDS011;396;52.558;13.188;2023-07-22T06:49:14;9.77;;;2.90;;
828;SDS011;396;52.558;13.188;2023-07-22T06:51:41;6.83;;;2.20;;
828;SDS011;396;52.558;13.188;2023-07-22T06:54:07;7.63;;;2.40;;
828;SDS011;396;52.558;13.188;2023-07-22T06:56:34;6.83;;;2.07;;
828;SDS011;396;52.558;13.188;2023-07-22T06:59:01;7.23;;;2.23;;
828;SDS011;396;52.558;13.188;2023-07-22T07:01:28;8.07;;;2.17;;
828;SDS011;396;52.558;13.188;2023-07-22T07:03:54;6.37;;;2.10;;
828;SDS011;396;52.558;13.188;2023-07-22T07:06:22;7.37;;;2.27;;
828;SDS011;396;52.558;13.188;2023-07-22T07:08:49;8.33;;;1.63;;
828;SDS011;396;52.558;13.188;2023-07-22T07:11:17;8.03;;;1.87;;
828;SDS011;396;52.558;13.188;2023-07-22T07:13:43;6.53;;;2.03;;
828;SDS011;396;52.558;13.188;2023-07-22T07:16:20;6.90;;;1.90;;
828;SDS011;396;52.558;13.188;2023-07-22T07:18:48;6.50;;;2.10;;
828;SDS011;396;52.558;13.188;2023-07-22T07:21:15;7.17;;;2.37;;
828;SDS011;396;52.558;13.188;2023-07-22T07:23:43;10.90;;;3.23;;
828;SDS011;396;52.558;13.188;2023-07-22T07:26:10;7.83;;;2.80;;
828;SDS011;396;52.558;13.188;2023-07-22T07:28:37;8.67;;;2.00;;
828;SDS011;396;52.558;13.188;2023-07-22T07:31:03;6.60;;;1.97;;
828;SDS011;396;52.558;13.188;2023-07-22T07:33:30;9.50;;;2.60;;
828;SDS011;396;52.558;13.188;2023-07-22T07:35:57;8.43;;;2.50;;
828;SDS011;396;52.558;13.188;2023-07-22T07:38:23;10.60;;;2.33;;
828;SDS011;396;52.558;13.188;2023-07-22T07:40:52;7.67;;;2.47;;
828;SDS011;396;52.558;13.188;2023-07-22T07:43:19;7.60;;;3.10;;
828;SDS011;396;52.558;13.188;2023-07-22T07:45:46;6.20;;;1.97;;
828;SDS011;396;52.558;13.188;2023-07-22T07:48:13;6.20;;;1.90;;
828;SDS011;396;52.558;13.188;2023-07-22T07:50:39;6.77;;;1.80;;
828;SDS011;396;52.558;13.188;2023-07-22T07:53:06;8.77;;;1.87;;
828;SDS011;396;52.558;13.188;2023-07-22T07:55:32;6.00;;;1.63;;
828;SDS011;396;52.558;13.188;2023-07-22T07:58:01;6.73;;;1.93;;
828;SDS011;396;52.558;13.188;2023-07-22T08:00:27;11.20;;;2.70;;
828;SDS011;396;52.558;13.188;2023-07-22T08:02:54;6.13;;;1.43;;
828;SDS011;396;52.558;13.188;2023-07-22T08:05:20;8.50;;;2.20;;
828;SDS011;396;52.558;13.188;2023-07-22T08:07:47;8.10;;;1.87;;
828;SDS011;396;52.558;13.188;2023-07-22T08:10:14;6.00;;;1.80;;
828;SDS011;396;52.558;13.188;2023-07-22T08:12:41;6.33;;;1.73;;
828;SDS011;396;52.558;13.188;2023-07-22T08:15:09;6.53;;;1.87;;
828;SDS011;396;52.558;13.188;2023-07-22T08:17:36;6.63;;;2.17;;
828;SDS011;396;52.558;13.188;2023-07-22T08:20:03;6.97;;;2.40;;
828;SDS011;396;52.558;13.188;2023-07-22T08:22:31;6.97;;;2.00;;
828;SDS011;396;52.558;13.188;2023-07-22T08:24:58;8.83;;;2.47;;
828;SDS011;396;52.558;13.188;2023-07-22T08:27:24;6.70;;;1.70;;
828;SDS011;396;52.558;13.188;2023-07-22T08:29:51;8.03;;;2.17;;
828;SDS011;396;52.558;13.188;2023-07-22T08:32:19;6.17;;;2.00;;
828;SDS011;396;52.558;13.188;2023-07-22T08:34:46;6.60;;;1.73;;
828;SDS011;396;52.558;13.188;2023-07-22T08:37:12;5.73;;;1.63;;
828;SDS011;396;52.558;13.188;2023-07-22T08:39:39;6.80;;;2.00;;
828;SDS011;396;52.558;13.188;2023-07-22T08:42:05;7.60;;;2.30;;
828;SDS011;396;52.558;13.188;2023-07-22T08:44:34;6.77;;;1.40;;
828;SDS011;396;52.558;13.188;2023-07-22T08:47:04;7.33;;;2.50;;
828;SDS011;396;52.558;13.188;2023-07-22T08:49:34;9.30;;;2.40;;
828;SDS011;396;52.558;13.188;2023-07-22T08:52:01;6.23;;;1.73;;
828;SDS011;396;52.558;13.188;2023-07-22T08:54:28;5.57;;;1.67;;
828;SDS011;396;52.558;13.188;2023-07-22T08:56:55;6.70;;;1.30;;
828;SDS011;396;52.558;13.188;2023-07-22T08:59:22;7.67;;;2.10;;
828;SDS011;396;52.558;13.188;2023-07-22T09:01:50;5.87;;;1.67;;
828;SDS011;396;52.558;13.188;2023-07-22T09:04:18;8.93;;;1.70;;
828;SDS011;396;52.558;13.188;2023-07-22T09:06:46;8.00;;;2.10;;
828;SDS011;396;52.558;13.188;2023-07-22T09:09:13;6.80;;;2.10;;
828;SDS011;396;52.558;13.188;2023-07-22T09:11:40;5.40;;;1.30;;
828;SDS011;396;52.558;13.188;2023-07-22T09:14:08;8.70;;;1.80;;
828;SDS011;396;52.558;13.188;2023-07-22T09:16:35;5.77;;;1.73;;
828;SDS011;396;52.558;13.188;2023-07-22T09:19:03;5.37;;;1.63;;
828;SDS011;396;52.558;13.188;2023-07-22T09:21:31;5.33;;;1.07;;
828;SDS011;396;52.558;13.188;2023-07-22T09:24:02;7.53;;;1.60;;
828;SDS011;396;52.558;13.188;2023-07-22T09:26:49;4.90;;;1.17;;
828;SDS011;396;52.558;13.188;2023-07-22T09:29:15;6.90;;;1.40;;
828;SDS011;396;52.558;13.188;2023-07-22T09:31:49;5.17;;;1.27;;
828;SDS011;396;52.558;13.188;2023-07-22T09:34:17;5.10;;;1.10;;
828;SDS011;396;52.558;13.188;2023-07-22T09:36:49;5.73;;;1.20;;
828;SDS011;396;52.558;13.188;2023-07-22T09:39:18;5.90;;;1.17;;
828;SDS011;396;52.558;13.188;2023-07-22T09:41:45;6.10;;;1.47;;
828;SDS011;396;52.558;13.188;2023-07-22T09:44:12;4.80;;;0.90;;
828;SDS011;396;52.558;13.188;2023-07-22T09:46:38;6.10;;;1.40;;
828;SDS011;396;52.558;13.188;2023-07-22T09:49:06;6.90;;;1.40;;
828;SDS011;396;52.558;13.188;2023-07-22T09:51:34;5.83;;;1.20;;
828;SDS011;396;52.558;13.188;2023-07-22T09:54:02;5.07;;;1.07;;
828;SDS011;396;52.558;13.188;2023-07-22T09:56:31;6.03;;;1.00;;
828;SDS011;396;52.558;13.188;2023-07-22T09:58:59;5.37;;;1.20;;
828;SDS011;396;52.558;13.188;2023-07-22T10:01:30;4.90;;;1.10;;
828;SDS011;396;52.558;13.188;2023-07-22T10:03:58;7.77;;;1.90;;
828;SDS011;396;52.558;13.188;2023-07-22T10:06:27;4.83;;;0.97;;
828;SDS011;396;52.558;13.188;2023-07-22T10:08:54;4.57;;;0.97;;
828;SDS011;396;52.558;13.188;2023-07-22T10:11:22;6.37;;;1.30;;
828;SDS011;396;52.558;13.188;2023-07-22T10:13:50;5.10;;;1.13;;
828;SDS011;396;52.558;13.188;2023-07-22T10:16:18;5.17;;;1.00;;
828;SDS011;396;52.558;13.188;2023-07-22T10:18:45;5.00;;;1.07;;
828;SDS011;396;52.558;13.188;2023-07-22T10:21:13;5.20;;;1.30;;
828;SDS011;396;52.558;13.188;2023-07-22T10:23:40;5.33;;;1.03;;
828;SDS011;396;52.558;13.188;2023-07-22T10:26:07;6.60;;;1.53;;
828;SDS011;396;52.558;13.188;2023-07-22T10:28:38;6.90;;;1.50;;
828;SDS011;396;52.558;13.188;2023-07-22T10:31:08;6.73;;;1.40;;
828;SDS011;396;52.558;13.188;2023-07-22T10:33:43;4.97;;;1.17;;
828;SDS011;396;52.558;13.188;2023-07-22T10:36:13;4.83;;;1.13;;
828;SDS011;396;52.558;13.188;2023-07-22T10:38:41;6.03;;;1.57;;
828;SDS011;396;52.558;13.188;2023-07-22T10:41:11;6.70;;;1.53;;
828;SDS011;396;52.558;13.188;2023-07-22T10:43:39;6.50;;;1.33;;
828;SDS011;396;52.558;13.188;2023-07-22T10:46:09;7.20;;;1.90;;
828;SDS011;396;52.558;13.188;2023-07-22T10:48:37;5.10;;;1.20;;
828;SDS011;396;52.558;13.188;2023-07-22T10:51:07;7.63;;;1.20;;
828;SDS011;396;52.558;13.188;2023-07-22T10:53:40;5.67;;;1.40;;
828;SDS011;396;52.558;13.188;2023-07-22T10:56:14;5.67;;;1.40;;
828;SDS011;396;52.558;13.188;2023-07-22T10:58:59;5.80;;;1.40;;
828;SDS011;396;52.558;13.188;2023-07-22T11:04:14;5.40;;;1.20;;
828;SDS011;396;52.558;13.188;2023-07-22T11:06:53;5.70;;;1.60;;
828;SDS011;396;52.558;13.188;2023-07-22T11:09:33;7.30;;;1.10;;
828;SDS011;396;52.558;13.188;2023-07-22T11:12:05;7.03;;;1.50;;
828;SDS011;396;52.558;13.188;2023-07-22T11:14:33;5.20;;;1.53;;
828;SDS011;396;52.558;13.188;2023-07-22T11:17:02;6.60;;;1.93;;
828;SDS011;396;52.558;13.188;2023-07-22T11:19:30;6.03;;;1.30;;
828;SDS011;396;52.558;13.188;2023-07-22T11:21:58;5.27;;;1.23;;
828;SDS011;396;52.558;13.188;2023-07-22T11:24:25;5.50;;;1.60;;
828;SDS011;396;52.558;13.188;2023-07-22T11:26:52;5.63;;;1.77;;
828;SDS011;396;52.558;13.188;2023-07-22T11:29:19;5.80;;;1.50;;
828;SDS011;396;52.558;13.188;2023-07-22T11:31:47;9.33;;;1.60;;
828;SDS011;396;52.558;13.188;2023-07-22T11:34:16;6.20;;;1.53;;
828;SDS011;396;52.558;13.188;2023-07-22T11:36:44;4.77;;;1.20;;
828;SDS011;396;52.558;13.188;2023-07-22T11:39:12;6.43;;;1.53;;
828;SDS011;396;52.558;13.188;2023-07-22T11:41:40;4.80;;;1.00;;
828;SDS011;396;52.558;13.188;2023-07-22T11:44:08;4.73;;;1.17;;
828;SDS011;396;52.558;13.188;2023-07-22T11:46:46;8.17;;;1.70;;
828;SDS011;396;52.558;13.188;2023-07-22T11:49:13;5.20;;;1.47;;
828;SDS011;396;52.558;13.188;2023-07-22T11:51:50;5.50;;;1.50;;
828;SDS011;396;52.558;13.188;2023-07-22T11:54:18;6.93;;;1.77;;
828;SDS011;396;52.558;13.188;2023-07-22T11:56:47;5.50;;;1.77;;
828;SDS011;396;52.558;13.188;2023-07-22T11:59:13;5.70;;;1.37;;
828;SDS011;396;52.558;13.188;2023-07-22T12:01:42;5.20;;;1.30;;
828;SDS011;396;52.558;13.188;2023-07-22T12:04:10;6.30;;;1.70;;
828;SDS011;396;52.558;13.188;2023-07-22T12:06:39;8.00;;;2.17;;
828;SDS011;396;52.558;13.188;2023-07-22T12:09:06;6.37;;;1.70;;
828;SDS011;396;52.558;13.188;2023-07-22T12:11:34;5.47;;;1.23;;
828;SDS011;396;52.558;13.188;2023-07-22T12:14:06;6.10;;;1.80;;
828;SDS011;396;52.558;13.188;2023-07-22T12:16:34;5.70;;;1.70;;
828;SDS011;396;52.558;13.188;2023-07-22T12:19:02;6.50;;;1.80;;
828;SDS011;396;52.558;13.188;2023-07-22T12:21:29;6.77;;;1.80;;
828;SDS011;396;52.558;13.188;2023-07-22T12:23:57;4.90;;;1.17;;
828;SDS011;396;52.558;13.188;2023-07-22T12:26:24;7.03;;;1.67;;
828;SDS011;396;52.558;13.188;2023-07-22T12:28:51;5.47;;;1.73;;
828;SDS011;396;52.558;13.188;2023-07-22T12:31:17;5.80;;;1.87;;
828;SDS011;396;52.558;13.188;2023-07-22T12:33:44;4.93;;;1.37;;
828;SDS011;396;52.558;13.188;2023-07-22T12:36:11;8.27;;;2.47;;
828;SDS011;396;52.558;13.188;2023-07-22T12:38:38;7.30;;;1.80;;
828;SDS011;396;52.558;13.188;2023-07-22T12:41:05;10.03;;;2.53;;
828;SDS011;396;52.558;13.188;2023-07-22T12:43:32;6.93;;;2.10;;
828;SDS011;396;52.558;13.188;2023-07-22T12:45:59;5.93;;;1.87;;
828;SDS011;396;52.558;13.188;2023-07-22T12:48:25;5.33;;;1.57;;
828;SDS011;396;52.558;13.188;2023-07-22T12:50:52;6.37;;;1.60;;
828;SDS011;396;52.558;13.188;2023-07-22T12:53:18;7.33;;;2.33;;
828;SDS011;396;52.558;13.188;2023-07-22T12:55:45;5.80;;;1.57;;
828;SDS011;396;52.558;13.188;2023-07-22T12:58:13;6.20;;;1.70;;
828;SDS011;396;52.558;13.188;2023-07-22T13:00:40;5.90;;;1.97;;
828;SDS011;396;52.558;13.188;2023-07-22T13:03:06;6.87;;;2.33;;
828;SDS011;396;52.558;13.188;2023-07-22T13:05:33;7.03;;;1.90;;
828;SDS011;396;52.558;13.188;2023-07-22T13:07:59;6.57;;;2.27;;
828;SDS011;396;52.558;13.188;2023-07-22T13:10:26;6.77;;;1.97;;
828;SDS011;396;52.558;13.188;2023-07-22T13:12:53;5.07;;;1.70;;
828;SDS011;396;52.558;13.188;2023-07-22T13:15:21;5.60;;;1.60;;
828;SDS011;396;52.558;13.188;2023-07-22T13:17:48;6.93;;;1.77;;
828;SDS011;396;52.558;13.188;2023-07-22T13:20:15;6.50;;;1.97;;
828;SDS011;396;52.558;13.188;2023-07-22T13:22:42;6.83;;;2.40;;
828;SDS011;396;52.558;13.188;2023-07-22T13:25:09;5.77;;;1.83;;
828;SDS011;396;52.558;13.188;2023-07-22T13:27:35;5.20;;;1.73;;
828;SDS011;396;52.558;13.188;2023-07-22T13:30:05;5.90;;;1.60;;
828;SDS011;396;52.558;13.188;2023-07-22T13:32:34;6.03;;;1.70;;
828;SDS011;396;52.558;13.188;2023-07-22T13:35:00;5.17;;;1.07;;
828;SDS011;396;52.558;13.188;2023-07-22T13:37:28;4.60;;;1.40;;
828;SDS011;396;52.558;13.188;2023-07-22T13:39:55;7.00;;;1.93;;
828;SDS011;396;52.558;13.188;2023-07-22T13:42:22;6.37;;;1.90;;
828;SDS011;396;52.558;13.188;2023-07-22T13:44:49;5.80;;;1.60;;
828;SDS011;396;52.558;13.188;2023-07-22T13:47:16;6.13;;;1.90;;
828;SDS011;396;52.558;13.188;2023-07-22T13:49:44;6.10;;;2.23;;
828;SDS011;396;52.558;13.188;2023-07-22T13:52:10;6.83;;;2.30;;
828;SDS011;396;52.558;13.188;2023-07-22T13:54:37;5.57;;;1.70;;
828;SDS011;396;52.558;13.188;2023-07-22T13:57:04;6.67;;;1.67;;
828;SDS011;396;52.558;13.188;2023-07-22T13:59:31;8.13;;;1.93;;
828;SDS011;396;52.558;13.188;2023-07-22T14:01:57;5.20;;;1.60;;
828;SDS011;396;52.558;13.188;2023-07-22T14:04:24;5.53;;;1.70;;
828;SDS011;396;52.558;13.188;2023-07-22T14:06:52;4.90;;;1.37;;
828;SDS011;396;52.558;13.188;2023-07-22T14:09:19;5.60;;;1.50;;
828;SDS011;396;52.558;13.188;2023-07-22T14:11:45;6.93;;;2.10;;
828;SDS011;396;52.558;13.188;2023-07-22T14:14:12;8.93;;;2.20;;
828;SDS011;396;52.558;13.188;2023-07-22T14:16:39;5.53;;;1.60;;
828;SDS011;396;52.558;13.188;2023-07-22T14:19:06;7.20;;;2.53;;
828;SDS011;396;52.558;13.188;2023-07-22T14:21:33;11.20;;;1.97;;
828;SDS011;396;52.558;13.188;2023-07-22T14:24:01;6.43;;;1.77;;
828;SDS011;396;52.558;13.188;2023-07-22T14:26:27;5.57;;;1.63;;
828;SDS011;396;52.558;13.188;2023-07-22T14:28:54;9.40;;;2.37;;
828;SDS011;396;52.558;13.188;2023-07-22T14:31:21;5.37;;;1.40;;
828;SDS011;396;52.558;13.188;2023-07-22T14:33:47;5.87;;;2.03;;
828;SDS011;396;52.558;13.188;2023-07-22T14:36:15;6.00;;;1.70;;
828;SDS011;396;52.558;13.188;2023-07-22T14:38:43;6.40;;;2.10;;
828;SDS011;396;52.558;13.188;2023-07-22T14:41:11;5.70;;;2.00;;
828;SDS011;396;52.558;13.188;2023-07-22T14:43:38;5.73;;;1.67;;
828;SDS011;396;52.558;13.188;2023-07-22T14:46:04;5.77;;;1.87;;
828;SDS011;396;52.558;13.188;2023-07-22T14:48:31;6.83;;;2.10;;
828;SDS011;396;52.558;13.188;2023-07-22T14:50:58;6.03;;;2.10;;
828;SDS011;396;52.558;13.188;2023-07-22T14:53:24;6.10;;;1.97;;
828;SDS011;396;52.558;13.188;2023-07-22T14:55:51;5.73;;;1.83;;
828;SDS011;396;52.558;13.188;2023-07-22T14:58:19;7.70;;;1.93;;
828;SDS011;396;52.558;13.188;2023-07-22T15:00:46;6.20;;;1.80;;
828;SDS011;396;52.558;13.188;2023-07-22T15:03:13;5.40;;;1.50;;
828;SDS011;396;52.558;13.188;2023-07-22T15:05:40;7.50;;;2.13;;
828;SDS011;396;52.558;13.188;2023-07-22T15:08:06;5.50;;;1.80;;
828;SDS011;396;52.558;13.188;2023-07-22T15:10:33;6.40;;;2.67;;
828;SDS011;396;52.558;13.188;2023-07-22T15:13:00;6.90;;;2.10;;
828;SDS011;396;52.558;13.188;2023-07-22T15:15:27;6.30;;;1.90;;
828;SDS011;396;52.558;13.188;2023-07-22T15:17:54;9.17;;;2.33;;
828;SDS011;396;52.558;13.188;2023-07-22T15:20:21;6.60;;;2.30;;
828;SDS011;396;52.558;13.188;2023-07-22T15:22:48;6.03;;;2.10;;
828;SDS011;396;52.558;13.188;2023-07-22T15:25:15;6.73;;;2.13;;
828;SDS011;396;52.558;13.188;2023-07-22T15:27:41;5.43;;;1.70;;
828;SDS011;396;52.558;13.188;2023-07-22T15:30:09;5.80;;;1.57;;
828;SDS011;396;52.558;13.188;2023-07-22T15:32:37;7.33;;;2.73;;
828;SDS011;396;52.558;13.188;2023-07-22T15:35:04;8.70;;;2.00;;